createdAt,value
2022-08-26T00:02:07.050Z,6.10
2022-08-26T00:04:34.708Z,5.63
2022-08-26T00:07:02.568Z,5.43
2022-08-26T00:09:30.584Z,5.93
2022-08-26T00:11:59.534Z,5.50
2022-08-26T00:14:31.247Z,5.67
2022-08-26T00:16:59.766Z,5.70
2022-08-26T00:19:27.682Z,5.77
2022-08-26T00:21:55.775Z,5.40
2022-08-26T00:24:23.855Z,5.80
2022-08-26T00:26:51.861Z,5.77
2022-08-26T00:29:21.447Z,5.80
2022-08-26T00:31:50.893Z,5.10
2022-08-26T00:34:19.516Z,5.60
2022-08-26T00:36:47.719Z,5.80
2022-08-26T00:39:17.035Z,6.00
2022-08-26T00:41:46.640Z,5.50
2022-08-26T00:44:14.290Z,5.00
2022-08-26T00:46:46.965Z,5.10
2022-08-26T00:49:19.443Z,6.30
2022-08-26T00:51:50.809Z,5.50
2022-08-26T00:54:20.707Z,6.40
2022-08-26T00:56:53.551Z,6.20
2022-08-26T00:59:21.610Z,6.13
2022-08-26T01:01:51.394Z,6.50
2022-08-26T01:04:21.798Z,6.47
2022-08-26T01:06:50.823Z,6.50
2022-08-26T01:09:19.478Z,8.73
2022-08-26T01:11:47.569Z,10.27
2022-08-26T01:14:15.620Z,9.50
2022-08-26T01:16:44.274Z,11.10
2022-08-26T01:19:20.569Z,11.73
2022-08-26T01:21:51.299Z,15.37
2022-08-26T01:24:20.507Z,15.27
2022-08-26T01:26:48.851Z,14.03
2022-08-26T01:29:20.218Z,17.07
2022-08-26T01:31:51.298Z,18.10
2022-08-26T01:34:23.863Z,19.20
2022-08-26T01:36:55.771Z,19.53
2022-08-26T01:39:24.811Z,18.90
2022-08-26T01:41:55.639Z,18.47
2022-08-26T01:44:27.497Z,21.03
2022-08-26T01:46:55.991Z,20.60
2022-08-26T01:49:26.063Z,19.93
2022-08-26T01:51:56.549Z,23.03
2022-08-26T01:54:27.279Z,22.60
2022-08-26T01:56:55.130Z,24.37
2022-08-26T01:59:24.559Z,21.47
2022-08-26T02:01:52.793Z,24.47
2022-08-26T02:04:25.804Z,23.83
2022-08-26T02:06:53.826Z,24.50
2022-08-26T02:09:22.488Z,29.07
2022-08-26T02:11:52.372Z,29.90
2022-08-26T02:14:22.266Z,27.20
2022-08-26T02:16:52.774Z,26.50
2022-08-26T02:19:24.163Z,31.40
2022-08-26T02:21:53.513Z,30.93
2022-08-26T02:24:23.679Z,32.00
2022-08-26T02:26:57.575Z,32.67
2022-08-26T02:29:29.776Z,30.67
2022-08-26T02:31:58.987Z,33.60
2022-08-26T02:34:31.034Z,33.97
2022-08-26T02:37:00.609Z,32.90
2022-08-26T02:39:29.507Z,30.40
2022-08-26T02:41:59.492Z,33.23
2022-08-26T02:44:27.621Z,34.13
2022-08-26T02:46:55.375Z,34.50
2022-08-26T02:49:25.828Z,35.23
2022-08-26T02:51:54.514Z,32.87
2022-08-26T02:54:22.944Z,35.70
2022-08-26T02:56:51.741Z,34.80
2022-08-26T02:59:24.313Z,34.03
2022-08-26T03:01:52.597Z,34.83
2022-08-26T03:04:25.843Z,33.67
2022-08-26T03:06:54.809Z,31.83
2022-08-26T03:09:23.510Z,34.10
2022-08-26T03:11:51.905Z,35.03
2022-08-26T03:14:20.874Z,35.13
2022-08-26T03:16:50.844Z,34.47
2022-08-26T03:19:19.064Z,32.03
2022-08-26T03:21:47.310Z,19.93
2022-08-26T03:24:15.577Z,25.27
2022-08-26T03:26:52.052Z,24.87
2022-08-26T03:29:40.153Z,28.00
2022-08-26T03:32:08.244Z,29.23
2022-08-26T03:34:37.167Z,29.53
2022-08-26T03:37:06.462Z,26.60
2022-08-26T03:39:34.180Z,24.23
2022-08-26T03:42:01.907Z,19.97
2022-08-26T03:44:31.521Z,27.93
2022-08-26T03:47:00.563Z,28.77
2022-08-26T03:49:29.008Z,28.27
2022-08-26T03:51:56.808Z,21.67
2022-08-26T03:54:24.545Z,28.87
2022-08-26T03:56:52.207Z,27.57
2022-08-26T03:59:21.046Z,25.10
2022-08-26T04:01:50.071Z,20.73
2022-08-26T04:04:18.155Z,26.00
2022-08-26T04:06:51.093Z,25.77
2022-08-26T04:09:21.098Z,22.97
2022-08-26T04:11:50.754Z,30.37
2022-08-26T04:14:20.360Z,34.73
2022-08-26T04:16:49.876Z,28.63
2022-08-26T04:19:18.331Z,30.47
2022-08-26T04:21:47.116Z,35.47
2022-08-26T04:24:17.641Z,31.03
2022-08-26T04:26:45.867Z,32.43
2022-08-26T04:29:17.947Z,29.30
2022-08-26T04:31:46.837Z,30.43
2022-08-26T04:34:17.746Z,31.23
2022-08-26T04:36:45.744Z,31.40
2022-08-26T04:39:16.561Z,31.27
2022-08-26T04:41:46.419Z,31.33
2022-08-26T04:44:14.759Z,30.10
2022-08-26T04:46:43.923Z,31.70
2022-08-26T04:49:12.320Z,29.17
2022-08-26T04:51:41.361Z,28.07
2022-08-26T04:54:11.777Z,27.00
2022-08-26T04:56:41.853Z,25.93
2022-08-26T04:59:14.915Z,24.30
2022-08-26T05:01:45.517Z,25.23
2022-08-26T05:04:16.125Z,23.53
2022-08-26T05:06:46.038Z,24.13
2022-08-26T05:09:14.426Z,24.07
2022-08-26T05:11:43.279Z,23.17
2022-08-26T05:14:10.995Z,22.93
2022-08-26T05:16:40.389Z,23.20
2022-08-26T05:19:08.881Z,21.57
2022-08-26T05:21:36.747Z,21.17
2022-08-26T05:24:06.422Z,22.47
2022-08-26T05:26:34.417Z,20.83
2022-08-26T05:29:02.412Z,20.60
2022-08-26T05:31:32.679Z,19.40
2022-08-26T05:34:03.649Z,19.07
2022-08-26T05:36:33.984Z,20.37
2022-08-26T05:39:03.454Z,18.07
2022-08-26T05:41:36.305Z,17.87
2022-08-26T05:44:06.649Z,20.77
2022-08-26T05:46:35.328Z,18.80
2022-08-26T05:49:04.529Z,17.83
2022-08-26T05:51:33.865Z,17.13
2022-08-26T05:54:03.638Z,17.50
2022-08-26T05:56:33.095Z,18.17
2022-08-26T05:59:01.456Z,17.67
2022-08-26T06:01:30.110Z,16.47
2022-08-26T06:04:01.737Z,14.93
2022-08-26T06:06:31.469Z,15.70
2022-08-26T06:09:00.728Z,16.83
2022-08-26T06:11:30.556Z,16.07
2022-08-26T06:14:03.827Z,15.40
2022-08-26T06:16:33.423Z,15.17
2022-08-26T06:19:02.731Z,16.00
2022-08-26T06:21:32.713Z,14.50
2022-08-26T06:24:19.751Z,15.00
2022-08-26T06:26:50.849Z,13.57
2022-08-26T06:29:24.334Z,14.47
2022-08-26T06:31:52.733Z,14.83
2022-08-26T06:34:21.106Z,15.70
2022-08-26T06:36:49.449Z,15.80
2022-08-26T06:39:21.159Z,14.50
2022-08-26T06:41:49.135Z,15.60
2022-08-26T06:44:16.959Z,14.67
2022-08-26T06:46:46.082Z,15.23
2022-08-26T06:49:18.089Z,15.00
2022-08-26T06:51:53.321Z,16.07
2022-08-26T06:54:21.263Z,17.53
2022-08-26T06:56:49.491Z,20.83
2022-08-26T06:59:17.260Z,20.93
2022-08-26T07:01:47.141Z,19.90
2022-08-26T07:04:22.187Z,22.03
2022-08-26T07:06:53.344Z,23.10
2022-08-26T07:09:22.864Z,20.40
2022-08-26T07:11:51.328Z,16.80
2022-08-26T07:14:21.636Z,17.77
2022-08-26T07:16:51.665Z,18.60
2022-08-26T07:19:30.505Z,17.33
2022-08-26T07:22:02.246Z,13.20
2022-08-26T07:24:31.436Z,13.03
2022-08-26T07:27:01.467Z,12.00
2022-08-26T07:29:30.558Z,12.17
2022-08-26T07:31:59.943Z,11.40
2022-08-26T07:34:27.632Z,11.13
2022-08-26T07:36:56.849Z,11.80
2022-08-26T07:39:24.967Z,11.30
2022-08-26T07:41:52.895Z,11.67
2022-08-26T07:44:21.036Z,10.60
2022-08-26T07:46:52.329Z,9.47
2022-08-26T07:49:23.256Z,9.73
2022-08-26T07:51:51.422Z,9.80
2022-08-26T07:54:19.887Z,10.20
2022-08-26T07:56:48.222Z,10.07
2022-08-26T07:59:16.707Z,9.50
2022-08-26T08:01:46.641Z,9.30
2022-08-26T08:04:14.617Z,8.97
2022-08-26T08:06:44.627Z,9.40
2022-08-26T08:09:12.685Z,9.17
2022-08-26T08:11:41.367Z,10.20
2022-08-26T08:14:11.655Z,10.40
2022-08-26T08:16:46.064Z,10.57
2022-08-26T08:19:14.992Z,11.20
2022-08-26T08:21:44.293Z,10.70
2022-08-26T08:24:12.578Z,11.00
2022-08-26T08:26:41.299Z,10.70
2022-08-26T08:29:09.364Z,10.57
2022-08-26T08:31:56.917Z,10.53
2022-08-26T08:34:25.882Z,9.97
2022-08-26T08:36:55.080Z,9.27
2022-08-26T08:39:23.424Z,10.30
2022-08-26T08:42:30.261Z,10.80
2022-08-26T08:45:00.574Z,12.80
2022-08-26T08:47:32.956Z,13.17
2022-08-26T08:50:05.929Z,13.17
2022-08-26T08:52:36.584Z,13.77
2022-08-26T08:55:05.326Z,13.30
2022-08-26T08:57:47.098Z,12.53
2022-08-26T09:00:19.705Z,10.90
2022-08-26T09:03:01.003Z,9.80
2022-08-26T09:05:31.935Z,9.20
2022-08-26T09:08:06.485Z,8.37
2022-08-26T09:10:37.075Z,7.23
2022-08-26T09:13:07.688Z,7.27
2022-08-26T09:15:44.117Z,6.13
2022-08-26T09:18:20.052Z,6.77
2022-08-26T09:20:50.793Z,8.43
2022-08-26T09:23:20.114Z,9.87
2022-08-26T09:25:50.933Z,10.40
2022-08-26T09:28:21.479Z,9.33
2022-08-26T09:31:01.205Z,8.40
2022-08-26T09:33:31.674Z,8.70
2022-08-26T09:36:18.689Z,8.30
2022-08-26T09:38:47.643Z,10.07
2022-08-26T09:41:25.893Z,12.07
2022-08-26T09:44:15.761Z,11.47
2022-08-26T09:46:52.593Z,12.97
2022-08-26T09:49:29.863Z,20.43
2022-08-26T09:52:19.013Z,22.03
2022-08-26T09:55:02.429Z,29.90
2022-08-26T09:57:33.947Z,26.57
2022-08-26T10:00:03.071Z,25.97
2022-08-26T10:02:38.342Z,24.87
2022-08-26T10:05:10.426Z,21.53
2022-08-26T10:07:43.002Z,20.23
2022-08-26T10:10:15.855Z,17.87
2022-08-26T10:13:04.212Z,18.50
2022-08-26T10:15:41.254Z,18.77
2022-08-26T10:18:19.070Z,17.63
2022-08-26T10:20:54.672Z,13.33
2022-08-26T10:23:25.609Z,11.97
2022-08-26T10:25:57.979Z,11.63
2022-08-26T10:28:32.761Z,10.43
2022-08-26T10:31:05.226Z,11.07
2022-08-26T10:33:32.956Z,16.50
2022-08-26T10:36:05.211Z,17.33
2022-08-26T10:38:35.587Z,16.10
2022-08-26T10:41:10.608Z,13.93
2022-08-26T10:43:44.338Z,12.20
2022-08-26T10:46:17.049Z,12.80
2022-08-26T10:48:49.154Z,12.73
2022-08-26T10:51:24.865Z,13.27
2022-08-26T10:53:56.485Z,11.90
2022-08-26T10:56:39.353Z,11.93
2022-08-26T10:59:12.519Z,9.70
2022-08-26T11:01:47.075Z,10.03
2022-08-26T11:04:39.171Z,9.57
2022-08-26T11:07:42.303Z,8.57
2022-08-26T11:10:27.309Z,10.20
2022-08-26T11:13:01.009Z,11.83
2022-08-26T11:16:09.425Z,11.27
2022-08-26T11:18:51.290Z,8.83
2022-08-26T11:21:44.691Z,8.43
2022-08-26T11:24:43.715Z,8.37
2022-08-26T11:27:15.950Z,7.40
2022-08-26T11:30:01.560Z,7.80
2022-08-26T11:32:48.749Z,7.60
2022-08-26T11:35:50.524Z,8.27
2022-08-26T11:38:24.165Z,10.57
2022-08-26T11:41:10.973Z,11.10
2022-08-26T11:43:40.704Z,11.80
2022-08-26T11:46:12.163Z,11.13
2022-08-26T11:48:41.389Z,8.70
2022-08-26T11:51:11.610Z,9.10
2022-08-26T11:53:44.610Z,8.53
2022-08-26T11:56:21.483Z,8.70
2022-08-26T11:58:49.907Z,7.03
2022-08-26T12:01:27.629Z,6.07
2022-08-26T12:03:59.993Z,5.60
2022-08-26T12:06:30.686Z,6.60
2022-08-26T12:09:00.696Z,5.73
2022-08-26T12:11:31.000Z,5.83
2022-08-26T12:14:01.561Z,7.27
2022-08-26T12:16:33.169Z,7.33
2022-08-26T12:19:01.153Z,6.93
2022-08-26T12:21:34.913Z,6.57
2022-08-26T12:24:03.380Z,6.97
2022-08-26T12:26:33.169Z,6.90
2022-08-26T12:29:20.350Z,6.20
2022-08-26T12:31:52.752Z,5.70
2022-08-26T12:34:20.617Z,4.83
2022-08-26T12:36:50.130Z,5.53
2022-08-26T12:39:27.716Z,6.60
2022-08-26T12:41:57.469Z,5.40
2022-08-26T12:44:53.207Z,5.63
2022-08-26T12:47:33.867Z,6.20
2022-08-26T12:50:18.413Z,6.20
2022-08-26T12:52:57.135Z,7.60
2022-08-26T12:55:28.181Z,7.40
2022-08-26T12:58:19.632Z,7.40
2022-08-26T13:00:48.508Z,6.80
2022-08-26T13:03:32.497Z,5.03
2022-08-26T13:06:15.977Z,3.97
2022-08-26T13:08:44.825Z,3.77
2022-08-26T13:11:15.750Z,3.50
2022-08-26T13:13:43.451Z,4.00
2022-08-26T13:16:11.472Z,3.07
2022-08-26T13:18:41.122Z,3.83
2022-08-26T13:21:18.512Z,5.97
2022-08-26T13:23:47.151Z,4.40
2022-08-26T13:26:15.195Z,4.63
2022-08-26T13:28:43.148Z,3.50
2022-08-26T13:31:11.614Z,2.80
2022-08-26T13:33:40.971Z,3.10
2022-08-26T13:36:09.418Z,2.70
2022-08-26T13:38:37.247Z,2.20
2022-08-26T13:41:05.851Z,2.77
2022-08-26T13:43:33.940Z,2.20
2022-08-26T13:46:02.008Z,1.97
2022-08-26T13:48:30.005Z,2.20
2022-08-26T13:50:59.073Z,2.50
2022-08-26T13:53:26.805Z,2.23
2022-08-26T13:55:54.541Z,2.33
2022-08-26T13:58:22.241Z,2.20
2022-08-26T14:00:53.556Z,2.30
2022-08-26T14:03:21.445Z,2.20
2022-08-26T14:05:49.376Z,1.90
2022-08-26T14:08:18.950Z,2.50
2022-08-26T14:13:16.605Z,2.63
2022-08-26T14:15:44.265Z,2.37
2022-08-26T14:18:15.973Z,2.30
2022-08-26T14:20:47.142Z,2.10
2022-08-26T14:23:16.043Z,2.10
2022-08-26T14:25:45.204Z,2.30
2022-08-26T14:28:13.059Z,2.40
2022-08-26T14:30:42.249Z,2.10
2022-08-26T14:41:19.322Z,1.80
2022-08-26T14:43:49.423Z,1.83
2022-08-26T14:46:17.863Z,2.10
2022-08-26T14:48:45.691Z,2.63
2022-08-26T14:51:13.345Z,2.20
2022-08-26T14:54:00.345Z,2.30
2022-08-26T14:56:31.450Z,2.70
2022-08-26T14:58:59.056Z,2.47
2022-08-26T15:01:30.840Z,2.60
2022-08-26T15:03:59.255Z,2.67
2022-08-26T15:06:27.421Z,2.20
2022-08-26T15:08:55.295Z,2.37
2022-08-26T15:11:22.966Z,2.93
2022-08-26T15:13:52.991Z,3.10
2022-08-26T15:16:20.907Z,3.00
2022-08-26T15:18:48.605Z,3.23
2022-08-26T15:21:16.212Z,2.30
2022-08-26T15:23:47.764Z,2.87
2022-08-26T15:26:16.337Z,2.47
2022-08-26T15:28:44.557Z,2.50
2022-08-26T15:31:13.802Z,3.20
2022-08-26T15:33:41.695Z,2.93
2022-08-26T15:36:10.363Z,2.67
2022-08-26T15:38:39.838Z,3.03
2022-08-26T15:41:08.593Z,3.50
2022-08-26T15:43:37.309Z,2.73
2022-08-26T15:46:05.446Z,2.87
2022-08-26T15:48:34.498Z,2.80
2022-08-26T15:51:02.477Z,2.87
2022-08-26T15:53:32.202Z,2.27
2022-08-26T15:56:00.903Z,2.30
2022-08-26T15:58:29.851Z,2.60
2022-08-26T16:00:58.217Z,2.90
2022-08-26T16:03:26.346Z,2.30
2022-08-26T16:05:55.413Z,2.87
2022-08-26T16:08:23.210Z,2.23
2022-08-26T16:10:51.550Z,2.40
2022-08-26T16:13:20.430Z,2.60
2022-08-26T16:15:49.294Z,3.20
2022-08-26T16:18:17.917Z,3.07
2022-08-26T16:21:12.758Z,2.73
2022-08-26T16:23:40.453Z,3.20
2022-08-26T16:26:11.830Z,2.50
2022-08-26T16:28:40.531Z,2.70
2022-08-26T16:31:08.300Z,2.57
2022-08-26T16:33:37.578Z,2.43
2022-08-26T16:36:05.767Z,2.73
2022-08-26T16:38:34.215Z,2.93
2022-08-26T16:41:03.517Z,2.60
2022-08-26T16:43:31.148Z,3.00
2022-08-26T16:45:58.941Z,2.33
2022-08-26T16:48:26.713Z,2.50
2022-08-26T16:50:55.519Z,2.33
2022-08-26T16:53:23.612Z,2.60
2022-08-26T16:55:51.767Z,2.63
2022-08-26T16:58:22.351Z,2.10
2022-08-26T17:00:50.461Z,2.33
2022-08-26T17:03:19.139Z,2.60
2022-08-26T17:05:47.378Z,2.17
2022-08-26T17:08:28.315Z,2.53
2022-08-26T17:10:56.689Z,3.47
2022-08-26T17:13:31.615Z,2.47
2022-08-26T17:16:04.150Z,2.43
2022-08-26T17:18:32.469Z,2.70
2022-08-26T17:21:02.058Z,2.30
2022-08-26T17:23:29.819Z,2.20
2022-08-26T17:25:57.486Z,2.13
2022-08-26T17:28:26.700Z,1.63
2022-08-26T17:30:57.027Z,1.97
2022-08-26T17:33:24.909Z,2.27
2022-08-26T17:35:53.099Z,2.10
2022-08-26T17:38:21.051Z,2.30
2022-08-26T17:40:50.069Z,2.43
2022-08-26T17:43:18.201Z,2.30
2022-08-26T17:45:47.765Z,2.40
2022-08-26T17:48:15.473Z,2.50
2022-08-26T17:50:49.294Z,2.50
2022-08-26T17:53:18.854Z,2.60
2022-08-26T17:55:47.304Z,2.70
2022-08-26T17:58:15.137Z,2.90
2022-08-26T18:00:44.533Z,3.03
2022-08-26T18:03:13.759Z,2.77
2022-08-26T18:05:42.574Z,2.70
2022-08-26T18:08:10.291Z,3.23
2022-08-26T18:10:38.031Z,3.20
2022-08-26T18:13:05.820Z,2.57
2022-08-26T18:15:34.302Z,2.60
2022-08-26T18:18:02.025Z,3.00
2022-08-26T18:20:31.013Z,2.70
2022-08-26T18:22:58.709Z,2.60
2022-08-26T18:25:26.922Z,2.77
2022-08-26T18:27:54.528Z,3.53
2022-08-26T18:30:22.608Z,2.60
2022-08-26T18:32:50.679Z,2.73
2022-08-26T18:35:18.774Z,2.83
2022-08-26T18:37:48.777Z,3.00
2022-08-26T18:40:16.957Z,2.60
2022-08-26T18:42:44.612Z,2.90
2022-08-26T18:45:16.295Z,2.53
2022-08-26T18:47:44.204Z,2.50
2022-08-26T18:50:12.096Z,2.63
2022-08-26T18:52:39.936Z,2.67
2022-08-26T18:55:09.148Z,2.93
2022-08-26T18:57:37.045Z,2.90
2022-08-26T19:00:06.759Z,2.47
2022-08-26T19:02:35.044Z,2.57
2022-08-26T19:05:03.907Z,2.40
2022-08-26T19:07:33.111Z,2.13
2022-08-26T19:10:02.203Z,2.43
2022-08-26T19:12:34.962Z,2.97
2022-08-26T19:15:02.777Z,2.33
2022-08-26T19:17:30.674Z,1.93
2022-08-26T19:19:58.350Z,2.20
2022-08-26T19:22:26.082Z,2.33
2022-08-26T19:24:53.741Z,1.90
2022-08-26T19:27:21.348Z,2.77
2022-08-26T19:29:50.470Z,2.90
2022-08-26T19:32:18.087Z,2.87
2022-08-26T19:34:45.960Z,2.47
2022-08-26T19:37:13.663Z,2.73
2022-08-26T19:39:41.689Z,2.90
2022-08-26T19:42:09.390Z,2.90
2022-08-26T19:44:54.809Z,2.50
2022-08-26T19:47:24.174Z,2.73
2022-08-26T19:49:54.605Z,2.37
2022-08-26T19:52:23.179Z,2.67
2022-08-26T19:54:58.526Z,2.13
2022-08-26T19:57:26.188Z,2.10
2022-08-26T19:59:53.909Z,2.40
2022-08-26T20:02:21.665Z,2.60
2022-08-26T20:04:50.711Z,3.30
2022-08-26T20:07:19.102Z,3.47
2022-08-26T20:09:47.641Z,4.30
2022-08-26T20:12:15.861Z,3.70
2022-08-26T20:14:44.449Z,2.93
2022-08-26T20:17:12.499Z,2.70
2022-08-26T20:19:57.947Z,2.47
2022-08-26T20:22:27.205Z,2.33
2022-08-26T20:24:55.045Z,2.53
2022-08-26T20:27:27.544Z,2.33
2022-08-26T20:30:08.874Z,2.43
2022-08-26T20:32:36.893Z,2.30
2022-08-26T20:35:07.108Z,2.40
2022-08-26T20:37:36.387Z,2.40
2022-08-26T20:40:06.626Z,2.30
2022-08-26T20:42:34.427Z,2.23
2022-08-26T20:45:03.197Z,3.40
2022-08-26T20:47:30.842Z,2.77
2022-08-26T20:49:59.030Z,2.60
2022-08-26T20:52:26.677Z,3.00
2022-08-26T20:54:55.691Z,3.10
2022-08-26T20:57:23.454Z,3.73
2022-08-26T20:59:51.199Z,3.57
2022-08-26T21:02:19.250Z,3.10
2022-08-26T21:04:47.065Z,2.90
2022-08-26T21:07:14.809Z,2.90
2022-08-26T21:09:45.367Z,3.97
2022-08-26T21:12:15.158Z,3.50
2022-08-26T21:14:47.746Z,3.67
2022-08-26T21:17:17.062Z,5.30
2022-08-26T21:19:44.694Z,4.50
2022-08-26T21:22:12.869Z,3.80
2022-08-26T21:24:40.562Z,3.87
2022-08-26T21:27:08.215Z,3.70
2022-08-26T21:29:38.269Z,5.53
2022-08-26T21:32:06.712Z,5.60
2022-08-26T21:42:14.909Z,6.90
2022-08-26T21:44:45.012Z,6.00
2022-08-26T21:47:20.431Z,5.30
2022-08-26T21:49:48.434Z,6.40
2022-08-26T21:52:16.140Z,5.70
2022-08-26T21:54:49.443Z,7.77
2022-08-26T21:57:18.037Z,6.60
2022-08-26T21:59:47.252Z,6.13
2022-08-26T22:02:14.977Z,7.27
2022-08-26T22:04:46.834Z,6.90
2022-08-26T22:07:17.188Z,7.10
2022-08-26T22:09:45.048Z,7.00
2022-08-26T22:12:13.126Z,5.43
2022-08-26T22:14:40.776Z,6.43
2022-08-26T22:17:09.835Z,6.27
2022-08-26T22:19:39.138Z,5.17
2022-08-26T22:22:14.858Z,4.20
2022-08-26T22:24:43.208Z,3.67
2022-08-26T22:27:11.916Z,3.27
2022-08-26T22:29:39.715Z,3.10
2022-08-26T22:32:08.893Z,3.00
2022-08-26T22:34:36.544Z,2.70
2022-08-26T22:37:04.335Z,2.90
2022-08-26T22:39:32.040Z,3.30
2022-08-26T22:41:59.723Z,3.10
2022-08-26T22:44:27.364Z,3.43
2022-08-26T22:46:55.947Z,3.33
2022-08-26T22:49:25.177Z,3.70
2022-08-26T22:51:52.978Z,3.23
2022-08-26T22:54:20.907Z,3.40
2022-08-26T22:56:48.609Z,4.30
2022-08-26T22:59:16.720Z,3.60
2022-08-26T23:01:44.801Z,4.33
2022-08-26T23:04:12.857Z,3.80
2022-08-26T23:06:47.522Z,4.60
2022-08-26T23:09:17.834Z,5.03
2022-08-26T23:11:46.255Z,4.93
2022-08-26T23:14:14.165Z,5.57
2022-08-26T23:16:42.739Z,5.73
2022-08-26T23:19:12.578Z,5.93
2022-08-26T23:21:41.860Z,5.63
2022-08-26T23:24:10.235Z,5.80
2022-08-26T23:26:38.677Z,5.57
2022-08-26T23:29:08.005Z,5.60
2022-08-26T23:31:35.883Z,6.60
2022-08-26T23:34:21.061Z,6.30
2022-08-26T23:36:50.066Z,6.20
2022-08-26T23:39:17.826Z,5.97
2022-08-26T23:41:45.478Z,5.80
2022-08-26T23:44:14.068Z,6.07
2022-08-26T23:46:41.722Z,5.90
2022-08-26T23:49:09.587Z,6.07
2022-08-26T23:51:56.082Z,6.00
2022-08-26T23:54:25.223Z,5.67
2022-08-26T23:56:52.961Z,6.30
2022-08-26T23:59:20.666Z,5.57
